Time;durP1;ratioP1;P1;durP2;ratioP2;P2;SDS_P1;SDS_P2;PMS_P1;PMS_P2;Temp;Humidity;BMP_temperature;BMP_pressure;BME280_temperature;BME280_humidity;BME280_pressure;Samples;Min_cycle;Max_cycle;Signal;HPM_P1;HPM_P2
2021/12/09 00:00:14;;;;;;;18.63;9.83;;;;;;;;;;5070230;28;20527;-68
2021/12/09 00:02:40;;;;;;;18.48;9.68;;;;;;;;;;5072771;28;20350;-68
2021/12/09 00:05:07;;;;;;;19.00;9.82;;;;;;;;;;5072015;28;20029;-67
2021/12/09 00:07:33;;;;;;;19.92;9.95;;;;;;;;;;5088814;28;20031;-67
2021/12/09 00:10:02;;;;;;;21.58;10.10;;;;;;;;;;5089143;28;20020;-67
2021/12/09 00:12:28;;;;;;;19.58;9.70;;;;;;;;;;5072816;28;20092;-67
2021/12/09 00:14:55;;;;;;;16.40;7.97;;;;;;;;;;4721857;28;10001072;-71
2021/12/09 00:17:21;;;;;;;19.17;9.40;;;;;;;;;;5065320;28;20030;-67
2021/12/09 00:19:47;;;;;;;21.08;8.88;;;;;;;;;;5050108;28;20719;-67
2021/12/09 00:22:13;;;;;;;19.02;9.25;;;;;;;;;;5049214;28;20036;-67
2021/12/09 00:24:39;;;;;;;22.85;9.38;;;;;;;;;;5065283;28;20112;-67
2021/12/09 00:27:06;;;;;;;21.77;9.40;;;;;;;;;;4716690;28;10001013;-66
2021/12/09 00:29:32;;;;;;;20.27;8.98;;;;;;;;;;5072260;28;20240;-67
2021/12/09 00:31:58;;;;;;;18.90;9.15;;;;;;;;;;5072007;28;20021;-68
2021/12/09 00:34:30;;;;;;;20.02;8.63;;;;;;;;;;5072867;28;20031;-69
2021/12/09 00:37:02;;;;;;;23.80;10.48;;;;;;;;;;5072866;28;20043;-66
2021/12/09 00:39:28;;;;;;;22.30;9.20;;;;;;;;;;5087860;22;20048;-65
2021/12/09 00:41:54;;;;;;;19.92;8.95;;;;;;;;;;5073754;28;20051;-65
2021/12/09 00:44:20;;;;;;;21.83;8.68;;;;;;;;;;5075231;28;20493;-65
2021/12/09 00:46:46;;;;;;;17.35;8.10;;;;;;;;;;5073432;28;20016;-67
2021/12/09 00:49:12;;;;;;;21.65;10.02;;;;;;;;;;5074720;28;20485;-67
2021/12/09 00:51:38;;;;;;;17.08;8.05;;;;;;;;;;5072579;28;20127;-65
2021/12/09 00:54:04;;;;;;;22.48;8.85;;;;;;;;;;5074582;28;20025;-63
2021/12/09 00:56:30;;;;;;;20.15;8.35;;;;;;;;;;5074724;28;20021;-67
2021/12/09 00:58:56;;;;;;;19.83;8.30;;;;;;;;;;5073512;28;20040;-65
2021/12/09 01:01:23;;;;;;;18.23;8.45;;;;;;;;;;5074743;28;20388;-67
2021/12/09 01:03:49;;;;;;;17.70;8.40;;;;;;;;;;5071215;28;20054;-67
2021/12/09 01:06:15;;;;;;;20.15;8.32;;;;;;;;;;5074592;28;20037;-68
2021/12/09 01:08:42;;;;;;;17.13;7.80;;;;;;;;;;5073059;28;20476;-68
2021/12/09 01:11:09;;;;;;;18.65;8.55;;;;;;;;;;5074140;28;20503;-68
2021/12/09 01:13:35;;;;;;;16.90;8.32;;;;;;;;;;5073599;28;20043;-68
2021/12/09 01:16:01;;;;;;;20.90;8.20;;;;;;;;;;5074156;28;20024;-65
2021/12/09 01:18:27;;;;;;;20.98;8.70;;;;;;;;;;5074075;28;20020;-65
2021/12/09 01:20:53;;;;;;;19.95;8.68;;;;;;;;;;5072851;28;20027;-66
2021/12/09 01:23:19;;;;;;;17.23;7.82;;;;;;;;;;5072016;28;20435;-68
2021/12/09 01:25:47;;;;;;;17.65;7.68;;;;;;;;;;5072740;28;20492;-65
2021/12/09 01:28:21;;;;;;;19.63;8.30;;;;;;;;;;5073010;28;20035;-65
2021/12/09 01:30:49;;;;;;;20.10;8.75;;;;;;;;;;5072710;28;20029;-66
2021/12/09 01:33:15;;;;;;;19.30;8.88;;;;;;;;;;5072554;28;20025;-66
2021/12/09 01:35:47;;;;;;;21.17;9.15;;;;;;;;;;5072331;28;20033;-66
2021/12/09 01:38:14;;;;;;;20.13;9.02;;;;;;;;;;5072727;28;20036;-65
2021/12/09 01:40:41;;;;;;;19.97;8.87;;;;;;;;;;5072527;28;20174;-66
2021/12/09 01:43:07;;;;;;;18.23;8.73;;;;;;;;;;5071753;28;20036;-66
2021/12/09 01:45:33;;;;;;;17.27;8.13;;;;;;;;;;5073852;28;20029;-66
2021/12/09 01:47:59;;;;;;;19.42;8.57;;;;;;;;;;5072672;28;20020;-66
2021/12/09 01:50:25;;;;;;;16.52;7.97;;;;;;;;;;5074075;28;20027;-66
2021/12/09 01:52:51;;;;;;;17.92;8.70;;;;;;;;;;5073364;28;20111;-66
2021/12/09 01:55:18;;;;;;;19.05;8.57;;;;;;;;;;5072764;28;20515;-65
2021/12/09 01:57:49;;;;;;;18.40;9.48;;;;;;;;;;5072382;28;20071;-66
2021/12/09 02:00:16;;;;;;;17.13;8.30;;;;;;;;;;5072378;28;20044;-66
2021/12/09 02:02:43;;;;;;;20.37;8.97;;;;;;;;;;5072660;28;20503;-66
2021/12/09 02:05:10;;;;;;;16.95;7.65;;;;;;;;;;5073257;28;20060;-66
2021/12/09 02:07:36;;;;;;;18.25;8.43;;;;;;;;;;5071872;28;20412;-65
2021/12/09 02:10:05;;;;;;;20.90;8.93;;;;;;;;;;5071973;28;20032;-66
2021/12/09 02:12:31;;;;;;;21.65;8.98;;;;;;;;;;5071037;28;20078;-66
2021/12/09 02:14:59;;;;;;;18.45;9.27;;;;;;;;;;5073057;28;20106;-66
2021/12/09 02:17:29;;;;;;;18.45;9.50;;;;;;;;;;5073013;28;20477;-66
2021/12/09 02:19:59;;;;;;;22.45;9.57;;;;;;;;;;5071834;28;20024;-71
2021/12/09 02:22:26;;;;;;;20.42;8.07;;;;;;;;;;5070842;28;20021;-67
2021/12/09 02:24:53;;;;;;;20.95;9.02;;;;;;;;;;5071315;28;20024;-66
2021/12/09 02:27:19;;;;;;;17.90;8.40;;;;;;;;;;5073006;28;20504;-66
2021/12/09 02:29:45;;;;;;;18.65;8.50;;;;;;;;;;5071371;28;20032;-66
2021/12/09 02:32:10;;;;;;;21.00;8.75;;;;;;;;;;5072007;28;20025;-66
2021/12/09 02:34:37;;;;;;;17.63;8.55;;;;;;;;;;5071483;28;20110;-66
2021/12/09 02:37:04;;;;;;;20.95;8.48;;;;;;;;;;5072696;28;20031;-67
2021/12/09 02:39:30;;;;;;;22.38;9.50;;;;;;;;;;5071146;28;20032;-66
2021/12/09 02:41:56;;;;;;;19.20;8.45;;;;;;;;;;5071872;28;20063;-66
2021/12/09 02:44:22;;;;;;;19.88;8.55;;;;;;;;;;5072531;28;20024;-67
2021/12/09 02:46:50;;;;;;;17.60;8.07;;;;;;;;;;5072741;28;20031;-66
2021/12/09 02:49:18;;;;;;;17.98;7.72;;;;;;;;;;5072416;28;20020;-67
2021/12/09 02:51:45;;;;;;;18.83;8.48;;;;;;;;;;5070579;28;20041;-66
2021/12/09 02:54:15;;;;;;;20.20;8.02;;;;;;;;;;5071300;28;20025;-66
2021/12/09 02:56:42;;;;;;;17.60;8.43;;;;;;;;;;5071174;28;20025;-66
2021/12/09 02:59:08;;;;;;;19.95;9.65;;;;;;;;;;5071270;28;20031;-66
2021/12/09 03:01:37;;;;;;;23.33;9.35;;;;;;;;;;5070639;28;20108;-67
2021/12/09 03:04:05;;;;;;;20.15;8.88;;;;;;;;;;5071084;28;20051;-66
2021/12/09 03:06:35;;;;;;;18.17;8.15;;;;;;;;;;5072625;28;20020;-66
2021/12/09 03:09:04;;;;;;;17.75;9.07;;;;;;;;;;5072407;28;20035;-66
2021/12/09 03:11:31;;;;;;;22.45;9.05;;;;;;;;;;5070704;28;20029;-66
2021/12/09 03:13:57;;;;;;;18.35;8.90;;;;;;;;;;5070353;28;20017;-66
2021/12/09 03:16:23;;;;;;;19.52;8.13;;;;;;;;;;5070996;28;20060;-67
2021/12/09 03:18:53;;;;;;;17.88;8.82;;;;;;;;;;5071109;28;20032;-66
2021/12/09 03:21:20;;;;;;;21.05;9.18;;;;;;;;;;5070834;28;20025;-65
2021/12/09 03:23:47;;;;;;;18.00;9.52;;;;;;;;;;5070303;28;20025;-67
2021/12/09 03:26:13;;;;;;;22.80;8.60;;;;;;;;;;5071971;28;20049;-66
2021/12/09 03:28:39;;;;;;;22.73;9.13;;;;;;;;;;5072023;28;20468;-66
2021/12/09 03:31:05;;;;;;;17.80;9.05;;;3.80;99.90;;;;;;5072087;28;20036;-66
2021/12/09 03:33:31;;;;;;;18.35;9.27;;;3.10;99.90;;;;;;5069974;28;20133;-66
2021/12/09 03:36:03;;;;;;;22.10;8.85;;;2.90;99.90;;;;;;5073589;28;20024;-67
2021/12/09 03:38:29;;;;;;;20.75;8.25;;;3.00;99.90;;;;;;5074562;28;20503;-65
2021/12/09 03:40:55;;;;;;;19.73;9.05;;;3.10;99.90;;;;;;5074667;28;20115;-66
2021/12/09 03:43:22;;;;;;;20.80;9.68;;;3.00;99.90;;;;;;5074126;28;20020;-66
2021/12/09 03:45:50;;;;;;;18.42;9.70;;;;;;;;;;5075935;28;20032;-67
2021/12/09 03:48:16;;;;;;;21.50;9.18;;;;;;;;;;5075739;28;20017;-66
2021/12/09 03:50:43;;;;;;;22.85;10.20;;;;;;;;;;5074657;28;20025;-67
2021/12/09 03:53:09;;;;;;;19.80;10.07;;;;;;;;;;5074971;28;20016;-67
2021/12/09 03:55:35;;;;;;;20.50;9.88;;;;;;;;;;5074510;28;20035;-66
2021/12/09 03:58:01;;;;;;;22.88;9.77;;;;;;;;;;5074417;28;20084;-67
2021/12/09 04:00:29;;;;;;;20.35;9.65;;;;;;;;;;5075619;28;20542;-66
2021/12/09 04:02:56;;;;;;;20.83;9.85;;;;;;;;;;5073763;28;20060;-67
2021/12/09 04:05:22;;;;;;;22.40;10.00;;;;;;;;;;5074377;28;20047;-67
2021/12/09 04:07:48;;;;;;;22.73;10.60;;;;;;;;;;5074250;28;20028;-67
2021/12/09 04:10:14;;;;;;;19.73;9.88;;;;;;;;;;5075344;28;20503;-68
2021/12/09 04:12:40;;;;;;;17.25;9.35;;;;;;;;;;5073459;28;20078;-67
2021/12/09 04:15:07;;;;;;;19.08;10.02;;;;;;;;;;5075330;28;20028;-67
2021/12/09 04:17:33;;;;;;;24.33;10.05;;;;;;;;;;5075283;28;20021;-67
2021/12/09 04:19:59;;;;;;;19.73;8.98;;;;;;;;;;5074016;28;20023;-67
2021/12/09 04:22:25;;;;;;;19.55;10.18;;;;;;;;;;5073651;28;20028;-67
2021/12/09 04:24:52;;;;;;;20.70;9.65;;;;;;;;;;5075146;28;20099;-66
2021/12/09 04:27:18;;;;;;;20.90;9.93;;;;;;;;;;5075113;28;20024;-67
2021/12/09 04:29:44;;;;;;;23.25;10.73;;;;;;;;;;5074824;28;20060;-68
2021/12/09 04:32:11;;;;;;;22.98;10.43;;;;;;;;;;5073258;28;20035;-67
2021/12/09 04:34:37;;;;;;;22.05;9.70;;;;;;;;;;5074719;28;20027;-66
2021/12/09 04:37:03;;;;;;;23.23;9.63;;;;;;;;;;5074849;28;20056;-67
2021/12/09 04:39:29;;;;;;;23.30;9.20;;;;;;;;;;5073635;28;20034;-67
2021/12/09 04:41:55;;;;;;;23.75;8.85;;;;;;;;;;5074114;28;20107;-67
2021/12/09 04:44:22;;;;;;;21.17;9.30;;;;;;;;;;5074989;28;20048;-67
2021/12/09 04:46:48;;;;;;;18.38;9.15;;;;;;;;;;5074316;28;20027;-68
2021/12/09 04:49:14;;;;;;;19.50;9.02;;;;;;;;;;5073211;28;20127;-67
2021/12/09 04:51:40;;;;;;;22.48;10.00;;;;;;;;;;5072910;28;20111;-67
2021/12/09 04:54:06;;;;;;;20.15;9.48;;;;;;;;;;5073118;28;20020;-67
2021/12/09 04:56:33;;;;;;;24.95;10.35;;;;;;;;;;5073238;28;20108;-67
2021/12/09 04:58:59;;;;;;;22.00;9.77;;;;;;;;;;5074660;28;20024;-68
2021/12/09 05:01:25;;;;;;;24.38;9.90;;;;;;;;;;5073184;28;20025;-68
2021/12/09 05:03:51;;;;;;;23.08;10.25;;;;;;;;;;5073597;28;20021;-68
2021/12/09 05:06:18;;;;;;;23.90;10.10;;;;;;;;;;5073175;28;20020;-67
2021/12/09 05:08:48;;;;;;;25.85;11.45;;;;;;;;;;5072627;28;20025;-67
2021/12/09 05:11:47;;;;;;;21.17;9.90;;;;;;;;;;5073010;28;20070;-67
2021/12/09 05:14:14;;;;;;;20.80;10.43;;;;;;;;;;5074244;28;20028;-67
2021/12/09 05:16:40;;;;;;;20.70;10.57;;;;;;;;;;5073253;28;20029;-67
2021/12/09 05:19:06;;;;;;;20.73;10.13;;;;;;;;;;5072674;28;20036;-67
2021/12/09 05:21:37;;;;;;;24.05;10.25;;;;;;;;;;5073847;28;20095;-68
2021/12/09 05:24:04;;;;;;;24.73;10.88;;;;;;;;;;5074211;28;20028;-67
2021/12/09 05:26:36;;;;;;;21.20;10.57;;;;;;;;;;5074007;28;20112;-67
2021/12/09 05:29:02;;;;;;;24.35;10.57;;;;;;;;;;5073384;28;20024;-67
2021/12/09 05:34:14;;;;;;;20.42;10.23;;;;;;;;;;5074223;28;20043;-66
2021/12/09 05:36:39;;;;;;;20.35;9.68;;;;;;;;;;5072554;28;20056;-66
2021/12/09 05:39:07;;;;;;;23.02;11.07;;;;;;;;;;5072265;28;20059;-67
2021/12/09 05:41:33;;;;;;;19.35;10.38;;;;;;;;;;5071816;28;20024;-65
2021/12/09 05:44:03;;;;;;;27.00;10.98;;;;;;;;;;5073289;28;20082;-66
2021/12/09 05:46:29;;;;;;;19.05;9.18;;;;;;;;;;5073401;28;20393;-66
2021/12/09 05:48:55;;;;;;;21.05;10.27;;;;;;;;;;5073597;28;20028;-66
2021/12/09 05:51:25;;;;;;;23.08;10.70;;;;;;;;;;5073348;28;20021;-67
2021/12/09 05:53:51;;;;;;;23.15;10.00;;;;;;;;;;5072292;28;20373;-67
2021/12/09 05:56:18;;;;;;;21.70;10.80;;;;;;;;;;5072059;28;20519;-67
2021/12/09 05:58:43;;;;;;;35.10;11.45;;;;;;;;;;5070905;28;20028;-67
2021/12/09 06:01:09;;;;;;;21.25;9.88;;;;;;;;;;5072833;28;20027;-67
2021/12/09 06:03:35;;;;;;;24.48;11.20;;;;;;;;;;5071392;28;20033;-68
2021/12/09 06:06:01;;;;;;;22.83;10.32;;;;;;;;;;5071853;28;20024;-67
2021/12/09 06:08:28;;;;;;;20.42;9.23;;;;;;;;;;5071810;28;20028;-65
2021/12/09 06:10:54;;;;;;;23.05;9.65;;;;;;;;;;5071702;28;20469;-67
2021/12/09 06:13:22;;;;;;;21.65;9.70;;;;;;;;;;5070911;28;20024;-67
2021/12/09 06:15:48;;;;;;;19.30;9.77;;;;;;;;;;5072853;28;20020;-66
2021/12/09 06:18:14;;;;;;;22.30;10.20;;;;;;;;;;5073210;28;20020;-66
2021/12/09 06:20:40;;;;;;;21.88;10.73;;;;;;;;;;5072830;28;20435;-67
2021/12/09 06:23:06;;;;;;;21.50;9.43;;;;;;;;;;5071943;28;20021;-67
2021/12/09 06:25:33;;;;;;;24.27;10.32;;;;;;;;;;5072724;28;20595;-67
2021/12/09 06:27:59;;;;;;;20.75;9.90;;;;;;;;;;5068646;28;20492;-67
2021/12/09 06:30:25;;;;;;;21.23;10.80;;;;;;;;;;5066220;28;20461;-67
2021/12/09 06:32:51;;;;;;;23.90;10.07;;;;;;;;;;5050833;28;20025;-67
2021/12/09 06:35:18;;;;;;;23.33;10.30;;;;;;;;;;5056413;28;20024;-67
2021/12/09 06:37:46;;;;;;;25.10;9.98;;;;;;;;;;5071252;28;20579;-67
2021/12/09 06:40:13;;;;;;;22.48;10.32;;;;;;;;;;5062561;22;20382;-67
2021/12/09 06:42:40;;;;;;;19.60;10.23;;;;;;;;;;5032387;28;20393;-67
2021/12/09 06:45:07;;;;;;;22.05;9.63;;;;;;;;;;5050727;28;20029;-67
2021/12/09 06:47:33;;;;;;;28.30;9.73;;;;;;;;;;5050952;28;20021;-67
2021/12/09 06:49:59;;;;;;;25.05;9.20;;;;;;;;;;5051129;28;20432;-66
2021/12/09 06:52:25;;;;;;;21.95;10.10;;;;;;;;;;5050465;28;20061;-68
2021/12/09 06:54:51;;;;;;;21.50;9.80;;;;;;;;;;5050941;28;20103;-67
2021/12/09 06:57:17;;;;;;;20.92;9.35;;;;;;;;;;5050811;28;20075;-67
2021/12/09 06:59:43;;;;;;;21.98;10.00;;;;;;;;;;5050520;28;20500;-67
2021/12/09 07:02:09;;;;;;;21.08;9.10;;;;;;;;;;5034479;28;20021;-67
2021/12/09 07:04:36;;;;;;;27.25;9.75;;;;;;;;;;5030346;28;20056;-67
2021/12/09 07:07:02;;;;;;;21.70;9.40;;;;;;;;;;5030781;28;20048;-68
2021/12/09 07:09:29;;;;;;;24.08;9.82;;;;;;;;;;5030383;28;20465;-67
2021/12/09 07:11:56;;;;;;;21.23;8.60;;;;;;;;;;5029845;28;20026;-67
2021/12/09 07:14:22;;;;;;;21.67;9.40;;;;;;;;;;5030149;28;20291;-67
2021/12/09 07:16:48;;;;;;;25.15;9.40;;;;;;;;;;5030421;28;20022;-67
2021/12/09 07:19:14;;;;;;;23.20;9.23;;;;;;;;;;5028815;28;20105;-67
2021/12/09 07:21:40;;;;;;;19.25;9.07;;;;;;;;;;5028142;28;20095;-67
2021/12/09 07:24:06;;;;;;;20.80;9.82;;;;;;;;;;5030318;28;20037;-67
2021/12/09 07:26:32;;;;;;;23.13;10.13;;;;;;;;;;5030475;28;20033;-67
2021/12/09 07:28:59;;;;;;;22.95;10.63;;;;;;;;;;5040430;28;20061;-68
2021/12/09 07:31:25;;;;;;;22.63;11.13;;;;;;;;;;5049870;28;20500;-67
2021/12/09 07:33:52;;;;;;;29.10;12.15;;;;;;;;;;5031260;28;20555;-64
2021/12/09 07:36:18;;;;;;;24.80;10.32;;;;;;;;;;5031637;28;20101;-66
2021/12/09 07:38:46;;;;;;;20.13;9.52;;;;;;;;;;5031560;28;20029;-66
2021/12/09 07:41:12;;;;;;;24.45;10.13;;;;;;;;;;5047863;28;20059;-68
2021/12/09 07:43:38;;;;;;;20.23;9.45;;;;;;;;;;5048691;28;20021;-67
2021/12/09 07:46:04;;;;;;;22.27;9.45;;;;;;;;;;5049705;28;20627;-68
2021/12/09 07:48:31;;;;;;;21.95;10.02;;;;;;;;;;5049781;28;20025;-68
2021/12/09 07:50:57;;;;;;;24.30;10.15;;;;;;;;;;5050020;28;20032;-68
2021/12/09 07:53:23;;;;;;;23.73;9.48;;;;;;;;;;5049108;28;20025;-68
2021/12/09 07:55:53;;;;;;;26.70;8.73;;;;;;;;;;5049566;28;20064;-68
2021/12/09 07:58:19;;;;;;;23.27;9.63;;;;;;;;;;5049816;28;20064;-68
2021/12/09 08:00:45;;;;;;;25.15;9.55;;;;;;;;;;5049759;28;20048;-68
2021/12/09 08:03:12;;;;;;;22.95;8.82;;;;;;;;;;5049095;28;20543;-68
2021/12/09 08:05:40;;;;;;;24.02;9.30;;;;;;;;;;5049909;28;20021;-67
2021/12/09 08:08:06;;;;;;;20.88;9.80;;;;;;;;;;5031779;28;20032;-67
2021/12/09 08:10:33;;;;;;;26.75;9.20;;;;;;;;;;5049732;28;20393;-67
2021/12/09 08:13:00;;;;;;;20.75;8.25;;;;;;;;;;5049165;28;20025;-68
2021/12/09 08:15:28;;;;;;;22.27;8.65;;;;;;;;;;5049717;28;20113;-66
2021/12/09 08:20:23;;;;;;;20.05;7.35;;;;;;;;;;5049937;28;19904;-66
2021/12/09 08:22:49;;;;;;;20.63;8.30;;;;;;;;;;5051646;28;20437;-67
2021/12/09 08:25:15;;;;;;;23.58;9.05;;;;;;;;;;5053547;28;20123;-66
2021/12/09 08:27:45;;;;;;;23.20;8.73;;;;;;;;;;5035479;28;20029;-66
2021/12/09 08:30:12;;;;;;;23.67;8.32;;;;;;;;;;5031788;28;20029;-66
2021/12/09 08:32:39;;;;;;;20.95;9.25;;;;;;;;;;5032494;28;20100;-66
2021/12/09 08:35:05;;;;;;;19.00;7.80;;;;;;;;;;5031858;28;20120;-66
2021/12/09 08:37:32;;;;;;;20.13;7.97;;;;;;;;;;5033211;28;20041;-66
2021/12/09 08:39:58;;;;;;;22.38;8.85;;;;;;;;;;5031581;28;20500;-66
2021/12/09 08:42:27;;;;;;;18.30;8.63;;;;;;;;;;5030692;28;20040;-66
2021/12/09 08:44:53;;;;;;;21.08;11.30;;;;;;;;;;5033280;28;20459;-66
2021/12/09 08:47:20;;;;;;;20.45;9.65;;;;;;;;;;5032938;28;20032;-64
2021/12/09 08:49:46;;;;;;;20.08;8.68;;;;;;;;;;5032783;28;20470;-64
2021/12/09 08:52:13;;;;;;;26.58;9.65;;;;;;;;;;5032474;28;20021;-64
2021/12/09 08:54:39;;;;;;;21.42;8.40;;;;;;;;;;5032867;28;20021;-67
2021/12/09 08:57:05;;;;;;;19.70;8.32;;;;;;;;;;5033000;28;20033;-65
2021/12/09 08:59:32;;;;;;;21.23;9.20;;;;;;;;;;5032917;28;20021;-63
2021/12/09 09:01:58;;;;;;;22.95;8.40;;;;;;;;;;5031874;28;20064;-64
2021/12/09 09:04:24;;;;;;;22.10;8.57;;;;;;;;;;5032567;28;20402;-64
2021/12/09 09:07:00;;;;;;;22.77;8.63;;;;;;;;;;5032391;28;20036;-65
2021/12/09 09:09:27;;;;;;;22.70;9.15;;;;;;;;;;5032673;28;20030;-67
2021/12/09 09:11:56;;;;;;;23.80;8.68;;;;;;;;;;5031949;28;20731;-68
2021/12/09 09:14:22;;;;;;;19.85;8.45;;;;;;;;;;5030986;28;20121;-66
2021/12/09 09:16:49;;;;;;;19.17;8.00;;;;;;;;;;5030857;28;20067;-67
2021/12/09 09:19:15;;;;;;;22.15;9.07;;;;;;;;;;5032117;28;20175;-67
2021/12/09 09:21:42;;;;;;;20.05;8.48;;;;;;;;;;5031629;28;20041;-67
2021/12/09 09:24:08;;;;;;;24.02;8.95;;;;;;;;;;5030917;28;20091;-67
2021/12/09 09:26:34;;;;;;;19.95;8.35;;;;;;;;;;5032273;28;20127;-65
2021/12/09 09:29:01;;;;;;;20.92;7.78;;;;;;;;;;5039091;28;20031;-65
2021/12/09 09:31:30;;;;;;;16.23;7.22;;;;;;;;;;5034005;28;20112;-66
2021/12/09 09:33:56;;;;;;;19.65;7.97;;;;;;;;;;5050987;28;20099;-67
2021/12/09 09:36:22;;;;;;;18.35;7.28;;;;;;;;;;5051869;28;20106;-66
2021/12/09 09:38:48;;;;;;;23.38;8.00;;;;;;;;;;5033698;28;20025;-67
2021/12/09 09:41:17;;;;;;;18.30;8.70;;;;;;;;;;5052007;28;20024;-66
2021/12/09 09:46:16;;;;;;;21.50;8.73;;;;;;;;;;5052029;28;20076;-66
2021/12/09 09:48:44;;;;;;;18.33;8.57;;;;;;;;;;5051729;28;20025;-66
2021/12/09 09:51:10;;;;;;;18.30;8.10;;;;;;;;;;5051549;28;20025;-66
2021/12/09 09:53:37;;;;;;;18.42;9.52;;;;;;;;;;5050907;28;20047;-66
2021/12/09 09:56:12;;;;;;;19.42;8.40;;;;;;;;;;5052065;28;20489;-67
2021/12/09 09:58:38;;;;;;;18.55;7.38;;;;;;;;;;5051975;28;20025;-64
2021/12/09 10:01:04;;;;;;;17.65;7.38;;;;;;;;;;5052739;28;20071;-64
2021/12/09 10:03:34;;;;;;;22.48;8.35;;;;;;;;;;5051477;28;20017;-63
2021/12/09 10:06:02;;;;;;;18.23;7.70;;;;;;;;;;5051833;28;20049;-66
2021/12/09 10:08:31;;;;;;;16.83;7.80;;;;;;;;;;5051804;28;20091;-72
2021/12/09 10:10:57;;;;;;;18.77;7.75;;;;;;;;;;5051876;28;20025;-73
2021/12/09 10:13:28;;;;;;;19.30;7.35;;;;;;;;;;5050952;28;20021;-73
2021/12/09 10:15:54;;;;;;;20.73;8.80;;;;;;;;;;5034221;28;20051;-73
2021/12/09 10:18:37;;;;;;;25.90;10.52;;;;;;;;;;5051427;28;20477;-67
2021/12/09 10:21:04;;;;;;;20.67;8.88;;;;;;;;;;5049921;28;20107;-68
2021/12/09 10:23:33;;;;;;;19.77;8.60;;;;;;;;;;5049265;28;20021;-68
2021/12/09 10:26:18;;;;;;;17.85;8.27;;;;;;;;;;5050730;28;20110;-68
2021/12/09 10:28:49;;;;;;;18.95;7.68;;;;;;;;;;5045925;28;20022;-68
2021/12/09 10:31:17;;;;;;;22.08;9.70;;;;;;;;;;5030329;28;20033;-69
2021/12/09 10:34:02;;;;;;;22.20;9.90;;;;;;;;;;5027954;28;20500;-68
2021/12/09 10:36:40;;;;;;;22.83;9.60;;;;;;;;;;5013169;28;20095;-68
2021/12/09 10:39:21;;;;;;;19.77;7.05;;;;;;;;;;5013816;28;20029;-69
2021/12/09 10:41:47;;;;;;;21.02;8.25;;;;;;;;;;5012466;28;20076;-67
2021/12/09 10:44:14;;;;;;;24.08;8.40;;;;;;;;;;5030698;28;20110;-67
2021/12/09 10:46:49;;;;;;;18.63;7.93;;;;;;;;;;5030964;28;20071;-67
2021/12/09 10:49:17;;;;;;;22.70;8.48;;;;;;;;;;5030715;28;20168;-67
2021/12/09 10:51:55;;;;;;;26.83;9.85;;;;;;;;;;5012684;28;20409;-68
2021/12/09 10:54:34;;;;;;;20.50;7.80;;;;;;;;;;5012913;28;20037;-66
2021/12/09 10:57:20;;;;;;;21.58;8.35;;;;;;;;;;5031024;28;20026;-69
2021/12/09 10:59:46;;;;;;;18.48;8.35;;;;;;;;;;5013393;28;20025;-69
2021/12/09 11:02:13;;;;;;;16.50;6.93;;;;;;;;;;5030472;28;20048;-69
2021/12/09 11:05:00;;;;;;;23.83;9.05;;;;;;;;;;5013524;28;20057;-74
2021/12/09 11:07:30;;;;;;;17.13;6.75;;;;;;;;;;5030644;28;20108;-70
2021/12/09 11:10:15;;;;;;;21.95;8.23;;;;;;;;;;5012531;28;20029;-69
2021/12/09 11:12:52;;;;;;;20.83;8.32;;;;;;;;;;5012338;28;20033;-69
2021/12/09 11:15:19;;;;;;;20.35;7.30;;;;;;;;;;5030583;28;20500;-68
2021/12/09 11:17:48;;;;;;;22.58;8.15;;;;;;;;;;5030151;28;20021;-68
2021/12/09 11:20:14;;;;;;;19.25;8.38;;;;;;;;;;5030351;28;20033;-68
2021/12/09 11:22:44;;;;;;;18.80;8.48;;;;;;;;;;5029481;28;20516;-68
2021/12/09 11:25:33;;;;;;;19.38;8.27;;;;;;;;;;5030471;28;20159;-70
2021/12/09 11:28:09;;;;;;;20.92;7.90;;;;;;;;;;5012595;28;20064;-68
2021/12/09 11:30:59;;;;;;;16.65;7.80;;;;;;;;;;5030222;28;20029;-68
2021/12/09 11:33:33;;;;;;;18.45;7.88;;;;;;;;;;5028718;28;20044;-68
2021/12/09 11:36:01;;;;;;;18.98;7.97;;;;;;;;;;5031144;28;20124;-69
2021/12/09 11:38:53;;;;;;;22.23;9.10;;;;;;;;;;5030139;28;20029;-68
2021/12/09 11:41:30;;;;;;;22.55;9.38;;;;;;;;;;5030266;28;20108;-67
2021/12/09 11:43:56;;;;;;;21.15;7.63;;;;;;;;;;5029176;28;20025;-68
2021/12/09 11:46:22;;;;;;;20.25;8.15;;;;;;;;;;5030007;28;20025;-68
2021/12/09 11:48:48;;;;;;;17.83;7.40;;;;;;;;;;5028682;28;20048;-69
2021/12/09 11:51:14;;;;;;;19.98;7.13;;;;;;;;;;5028894;28;20026;-68
2021/12/09 11:53:43;;;;;;;18.77;7.70;;;;;;;;;;5027984;28;20079;-68
2021/12/09 11:56:35;;;;;;;17.42;7.25;;;;;;;;;;5029045;28;20032;-68
2021/12/09 12:12:26;;;;;;;18.92;8.40;;;;;;;;;;5033370;28;20033;-68
2021/12/09 12:14:57;;;;;;;21.83;7.75;;;;;;;;;;5033610;28;20478;-68
2021/12/09 12:20:03;;;;;;;17.08;7.95;;;;;;;;;;5033518;28;20022;-68
2021/12/09 12:22:52;;;;;;;19.52;8.05;;;;;;;;;;5032475;28;20030;-68
2021/12/09 12:25:45;;;;;;;16.10;8.55;;;;;;;;;;5033068;28;20101;-67
2021/12/09 12:31:39;;;;;;;19.83;7.70;;;;;;;;;;5033541;28;20048;-68
2021/12/09 12:39:34;;;;;;;23.02;8.82;;;;;;;;;;5064775;23;20139;-66
2021/12/09 12:42:04;;;;;;;18.38;7.65;;;;;;;;;;5073667;28;20031;-66
2021/12/09 12:44:31;;;;;;;22.25;8.15;;;;;;;;;;5074370;28;20031;-65
2021/12/09 12:47:12;;;;;;;19.33;8.23;;;;;;;;;;5072646;28;20028;-64
2021/12/09 12:49:45;;;;;;;20.42;8.52;;;;;;;;;;5073994;28;20028;-65
2021/12/09 12:52:20;;;;;;;22.60;8.52;;;;;;;;;;5073417;28;20108;-67
2021/12/09 12:57:28;;;;;;;20.98;8.45;;;;;;;;;;5074363;28;20025;-65
2021/12/09 13:00:13;;;;;;;19.00;8.23;;;;;;;;;;5075375;28;20032;-65
2021/12/09 13:13:55;;;;;;;18.33;7.75;;;;;;;;;;5074058;28;20039;-66
2021/12/09 13:19:15;;;;;;;19.73;8.27;;;;;;;;;;5074170;28;20445;-66
2021/12/09 13:21:41;;;;;;;20.77;8.68;;;;;;;;;;5073101;28;20027;-66
2021/12/09 13:30:05;;;;;;;20.02;7.72;;;;;;;;;;5074018;28;20028;-67
2021/12/09 13:35:34;;;;;;;17.60;7.45;;;;;;;;;;5073635;28;20032;-66
2021/12/09 13:45:51;;;;;;;19.98;8.48;;;;;;;;;;5073035;28;20392;-66
2021/12/09 13:48:56;;;;;;;18.25;7.45;;;;;;;;;;5073563;28;20056;-66
2021/12/09 13:51:50;;;;;;;23.75;8.85;;;;;;;;;;5073083;28;20020;-66
2021/12/09 13:54:24;;;;;;;22.50;8.27;;;;;;;;;;5072859;28;20554;-66
2021/12/09 13:57:04;;;;;;;19.45;8.50;;;;;;;;;;5073178;28;20476;-66
2021/12/09 13:59:34;;;;;;;21.35;8.82;;;;;;;;;;5072893;28;20108;-66
2021/12/09 14:02:11;;;;;;;17.17;8.45;;;;;;;;;;5072206;28;20021;-65
2021/12/09 14:04:37;;;;;;;18.17;8.43;;;;;;;;;;5071774;28;20115;-64
2021/12/09 14:07:11;;;;;;;18.73;8.38;;;;;;;;;;5071569;28;20055;-65
2021/12/09 14:09:39;;;;;;;21.48;10.13;;;;;;;;;;5072962;28;20029;-65
2021/12/09 14:12:05;;;;;;;19.13;9.10;;;;;;;;;;5070726;28;20488;-65
2021/12/09 14:14:50;;;;;;;19.38;9.15;;;;;;;;;;5072578;28;20032;-66
2021/12/09 14:17:22;;;;;;;17.05;8.35;;;;;;;;;;5072444;28;20027;-69
2021/12/09 14:20:11;;;;;;;20.20;8.88;;;;;;;;;;5075585;28;20020;-72
2021/12/09 14:22:38;;;;;;;18.27;9.02;;;;;;;;;;5058562;28;20036;-65
2021/12/09 14:25:09;;;;;;;18.98;9.02;;;;;;;;;;5072441;28;20021;-64
2021/12/09 14:27:38;;;;;;;20.00;9.95;;;;;;;;;;5070910;28;20024;-65
2021/12/09 14:30:08;;;;;;;20.77;9.30;;;;;;;;;;5072077;28;20020;-65
2021/12/09 14:32:34;;;;;;;22.13;9.25;;;;;;;;;;5068858;28;20020;-65
2021/12/09 14:35:01;;;;;;;18.88;8.90;;;;;;;;;;5071229;28;20067;-65
2021/12/09 14:37:28;;;;;;;23.30;11.82;;;;;;;;;;5070468;28;20496;-66
2021/12/09 14:40:02;;;;;;;20.52;10.27;;;;;;;;;;5070622;28;20056;-66
2021/12/09 14:42:29;;;;;;;21.58;9.50;;;;;;;;;;5069823;28;20411;-65
2021/12/09 14:44:58;;;;;;;20.67;11.07;;;;;;;;;;5071127;28;20025;-66
2021/12/09 14:47:26;;;;;;;20.23;9.13;;;;;;;;;;5072044;28;20100;-66
2021/12/09 14:49:54;;;;;;;15.50;7.68;;;;;;;;;;5072892;28;20411;-65
2021/12/09 14:52:30;;;;;;;20.33;9.07;;;;;;;;;;5069893;28;20028;-66
2021/12/09 14:55:12;;;;;;;20.92;9.93;;;;;;;;;;5070692;28;20397;-66
2021/12/09 14:57:59;;;;;;;19.70;10.15;;;;;;;;;;5071787;28;20021;-66
2021/12/09 15:00:30;;;;;;;23.60;8.68;;;;;;;;;;5071815;28;20031;-65
2021/12/09 15:02:56;;;;;;;21.13;11.02;;;;;;;;;;5071135;28;20017;-65
2021/12/09 15:05:22;;;;;;;19.75;8.60;;;;;;;;;;5071992;28;20039;-59
2021/12/09 15:07:59;;;;;;;20.80;9.75;;;;;;;;;;5059349;28;20124;-65
2021/12/09 15:10:29;;;;;;;26.42;9.15;;;;;;;;;;5067604;28;20561;-65
2021/12/09 15:12:58;;;;;;;23.70;9.63;;;;;;;;;;5066367;28;20040;-63
2021/12/09 15:15:25;;;;;;;;;;;;;;;;;;5052768;28;20055;-65
2021/12/09 15:18:12;;;;;;;20.17;9.38;;;;;;;;;;5046852;28;19958;-63
2021/12/09 15:20:41;;;;;;;21.50;9.82;;;;;;;;;;5046542;28;20029;-64
2021/12/09 15:23:15;;;;;;;19.02;8.60;;;;;;;;;;5046639;28;20403;-64
2021/12/09 15:25:42;;;;;;;22.98;10.32;;;;;;;;;;5056609;28;20027;-63
2021/12/09 15:28:11;;;;;;;23.48;11.10;;;;;;;;;;5066950;28;20078;-64
2021/12/09 15:30:37;;;;;;;21.17;9.27;;;;;;;;;;5047620;28;20052;-64
2021/12/09 15:33:05;;;;;;;21.60;9.77;;;;;;;;;;5049586;28;20532;-64
2021/12/09 15:35:31;;;;;;;21.10;10.13;;;;;;;;;;5051429;28;20033;-64
2021/12/09 15:37:59;;;;;;;23.92;9.00;;;;;;;;;;5052564;28;20087;-64
2021/12/09 15:40:25;;;;;;;21.10;9.18;;;;;;;;;;5055858;28;20082;-63